createdAt,value
2022-09-03T00:02:12.929Z,1.30
2022-09-03T00:08:09.970Z,1.20
2022-09-03T00:14:04.869Z,0.98
2022-09-03T00:19:45.352Z,1.00
2022-09-03T00:25:42.606Z,1.15
2022-09-03T00:31:27.774Z,1.20
2022-09-03T00:36:59.293Z,1.20
2022-09-03T00:42:48.180Z,1.02
2022-09-03T00:48:32.147Z,1.23
2022-09-03T00:54:09.658Z,1.15
2022-09-03T00:59:49.804Z,1.58
2022-09-03T01:05:41.313Z,1.23
2022-09-03T01:11:32.047Z,1.08
2022-09-03T01:17:15.459Z,1.20
2022-09-03T01:22:49.645Z,1.00
2022-09-03T01:28:43.386Z,1.15
2022-09-03T01:34:39.750Z,1.00
2022-09-03T01:40:35.183Z,1.20
2022-09-03T01:46:09.701Z,1.10
2022-09-03T01:51:42.215Z,1.30
2022-09-03T01:57:37.096Z,1.30
2022-09-03T02:03:10.464Z,1.30
2022-09-03T02:08:42.337Z,1.25
2022-09-03T02:14:14.357Z,1.13
2022-09-03T02:19:45.768Z,1.20
2022-09-03T02:25:17.764Z,1.23
2022-09-03T02:30:49.159Z,1.10
2022-09-03T02:36:27.668Z,1.20
2022-09-03T02:41:59.718Z,1.40
2022-09-03T02:47:32.510Z,1.50
2022-09-03T02:53:03.799Z,1.00
2022-09-03T02:58:35.522Z,1.40
2022-09-03T03:04:07.005Z,1.20
2022-09-03T03:09:37.828Z,1.23
2022-09-03T03:15:09.098Z,1.77
2022-09-03T03:20:40.380Z,1.35
2022-09-03T03:26:15.448Z,1.33
2022-09-03T03:31:46.799Z,1.27
2022-09-03T03:37:17.844Z,1.40
2022-09-03T03:42:50.223Z,1.27
2022-09-03T03:48:21.615Z,1.47
2022-09-03T03:53:58.607Z,1.40
2022-09-03T03:59:31.726Z,1.20
2022-09-03T04:05:03.007Z,1.30
2022-09-03T04:10:34.681Z,1.27
2022-09-03T04:16:10.800Z,1.27
2022-09-03T04:21:41.860Z,1.27
2022-09-03T04:27:12.803Z,1.20
2022-09-03T04:32:56.425Z,1.48
2022-09-03T04:38:29.910Z,1.42
2022-09-03T04:49:31.755Z,1.40
2022-09-03T04:55:03.119Z,1.30
2022-09-03T05:00:34.348Z,1.17
2022-09-03T05:06:06.522Z,1.20
2022-09-03T05:11:38.806Z,1.50
2022-09-03T05:17:09.918Z,1.20
2022-09-03T05:22:40.932Z,1.23
2022-09-03T05:28:12.269Z,1.23
2022-09-03T05:33:46.122Z,1.23
2022-09-03T05:39:17.297Z,1.50
2022-09-03T05:44:49.912Z,1.30
2022-09-03T05:50:21.243Z,1.20
2022-09-03T05:56:00.277Z,1.00
2022-09-03T06:01:45.714Z,1.38
2022-09-03T06:07:25.868Z,1.30
2022-09-03T06:12:58.340Z,1.17
2022-09-03T06:18:30.705Z,1.45
2022-09-03T06:24:02.754Z,1.45
2022-09-03T06:29:35.952Z,1.30
2022-09-03T06:35:08.163Z,1.60
2022-09-03T06:40:39.292Z,1.33
2022-09-03T06:46:12.831Z,2.03
2022-09-03T06:51:44.293Z,1.63
2022-09-03T06:57:15.400Z,1.60
2022-09-03T07:02:48.895Z,1.83
2022-09-03T07:08:20.144Z,1.38
2022-09-03T07:13:52.030Z,1.48
2022-09-03T07:19:23.278Z,1.50
2022-09-03T07:24:54.696Z,1.45
2022-09-03T07:30:26.951Z,1.40
2022-09-03T07:36:14.460Z,1.30
2022-09-03T07:41:46.749Z,1.35
2022-09-03T07:47:21.591Z,1.30
2022-09-03T07:52:59.260Z,1.30
2022-09-03T07:58:31.585Z,1.20
2022-09-03T08:04:04.641Z,1.25
2022-09-03T08:09:35.976Z,1.20
2022-09-03T08:15:08.894Z,1.40
2022-09-03T08:20:40.517Z,1.67
2022-09-03T08:26:11.954Z,1.67
2022-09-03T08:31:45.805Z,1.52
2022-09-03T08:37:16.879Z,1.30
2022-09-03T08:43:13.441Z,1.33
2022-09-03T08:48:45.438Z,1.40
2022-09-03T08:54:18.127Z,1.70
2022-09-03T08:59:54.916Z,1.45
2022-09-03T09:05:43.191Z,1.95
2022-09-03T09:11:22.359Z,1.60
2022-09-03T09:17:19.652Z,1.75
2022-09-03T09:22:56.825Z,1.58
2022-09-03T09:28:34.606Z,1.70
2022-09-03T09:34:08.119Z,2.40
2022-09-03T09:39:40.954Z,1.60
2022-09-03T09:45:12.675Z,2.17
2022-09-03T09:50:44.287Z,1.60
2022-09-03T09:56:24.525Z,1.33
2022-09-03T10:02:28.948Z,1.90
2022-09-03T10:13:43.724Z,1.75
2022-09-03T10:19:21.222Z,1.85
2022-09-03T10:25:00.057Z,1.58
2022-09-03T10:30:43.732Z,1.67
2022-09-03T10:36:26.673Z,1.80
2022-09-03T10:42:03.873Z,1.58
2022-09-03T10:47:52.804Z,1.60
2022-09-03T10:54:08.318Z,1.73
2022-09-03T10:59:48.588Z,1.27
2022-09-03T11:05:40.380Z,1.67
2022-09-03T11:11:20.469Z,1.98
2022-09-03T11:17:02.516Z,1.80
2022-09-03T11:22:36.638Z,1.70
2022-09-03T11:28:38.669Z,1.83
2022-09-03T11:34:32.538Z,1.73
2022-09-03T11:40:14.438Z,1.80
2022-09-03T11:45:52.357Z,1.77
2022-09-03T11:51:38.219Z,1.75
2022-09-03T11:57:31.677Z,2.70
2022-09-03T12:03:04.039Z,2.00
2022-09-03T12:08:58.514Z,2.22
2022-09-03T12:15:17.866Z,2.00
2022-09-03T12:21:06.402Z,1.80
2022-09-03T12:26:46.027Z,1.60
2022-09-03T12:32:21.271Z,1.90
2022-09-03T12:38:05.170Z,1.77
2022-09-03T12:43:50.646Z,2.20
2022-09-03T12:49:31.230Z,1.70
2022-09-03T12:55:27.703Z,2.10
2022-09-03T13:01:08.057Z,2.17
2022-09-03T13:13:35.924Z,1.77
2022-09-03T13:19:28.437Z,1.77
2022-09-03T13:25:28.820Z,2.67
2022-09-03T13:31:40.509Z,7.93
2022-09-03T13:37:32.119Z,7.65
2022-09-03T13:43:25.528Z,10.68
2022-09-03T13:49:33.427Z,7.82
2022-09-03T13:55:31.621Z,7.00
2022-09-03T14:01:26.755Z,5.18
2022-09-03T14:07:14.332Z,4.55
2022-09-03T14:13:08.894Z,4.50
2022-09-03T14:19:04.447Z,4.70
2022-09-03T14:30:21.679Z,4.35
2022-09-03T14:36:15.928Z,4.00
2022-09-03T14:42:16.688Z,3.95
2022-09-03T14:48:05.243Z,4.30
2022-09-03T14:54:19.100Z,17.35
2022-09-03T14:59:50.683Z,11.00
2022-09-03T15:33:36.417Z,2.80
2022-09-03T15:39:15.423Z,2.45
2022-09-03T15:44:50.073Z,2.17
2022-09-03T15:50:50.460Z,2.53
2022-09-03T15:56:39.128Z,2.72
2022-09-03T16:02:26.350Z,2.50
2022-09-03T16:08:28.278Z,2.45
2022-09-03T16:14:22.263Z,2.30
2022-09-03T16:20:05.126Z,2.10
2022-09-03T16:26:08.487Z,2.70
2022-09-03T16:31:48.366Z,2.38
2022-09-03T16:37:37.967Z,2.40
2022-09-03T16:43:41.074Z,2.05
2022-09-03T16:49:33.737Z,2.17
2022-09-03T16:55:18.883Z,2.38
2022-09-03T17:01:06.823Z,2.10
2022-09-03T17:06:47.356Z,2.55
2022-09-03T17:12:25.419Z,1.75
2022-09-03T17:18:19.694Z,1.98
2022-09-03T17:24:07.919Z,2.53
2022-09-03T17:30:09.576Z,2.40
2022-09-03T17:36:02.496Z,2.30
2022-09-03T17:41:45.139Z,2.30
2022-09-03T17:47:53.975Z,2.20
2022-09-03T17:53:34.970Z,2.10
2022-09-03T17:59:22.805Z,2.05
2022-09-03T18:05:01.903Z,1.98
2022-09-03T18:11:12.484Z,2.03
2022-09-03T18:16:57.136Z,2.00
2022-09-03T18:22:51.337Z,2.28
2022-09-03T18:28:50.054Z,2.33
2022-09-03T18:34:47.780Z,2.55
2022-09-03T18:40:45.365Z,2.53
2022-09-03T18:53:26.437Z,2.30
2022-09-03T18:59:34.544Z,2.40
2022-09-03T19:05:38.823Z,2.13
2022-09-03T19:11:32.454Z,2.17
2022-09-03T19:23:23.167Z,2.13
2022-09-03T19:35:25.599Z,2.40
2022-09-03T19:41:30.042Z,2.17
2022-09-03T19:47:21.919Z,2.72
2022-09-03T19:53:17.107Z,2.17
2022-09-03T19:59:21.173Z,2.35
2022-09-03T20:05:14.228Z,2.38
2022-09-03T20:10:48.726Z,2.20
2022-09-03T20:16:27.915Z,2.60
2022-09-03T20:22:07.112Z,2.10
2022-09-03T20:27:44.727Z,2.28
2022-09-03T20:33:22.987Z,2.45
2022-09-03T20:39:12.503Z,2.10
2022-09-03T20:44:50.172Z,2.33
2022-09-03T20:50:36.980Z,2.53
2022-09-03T20:56:32.570Z,2.22
2022-09-03T21:02:10.204Z,2.20
2022-09-03T21:07:53.920Z,2.53
2022-09-03T21:19:18.344Z,2.40
2022-09-03T21:24:59.116Z,2.35
2022-09-03T21:30:32.016Z,2.40
2022-09-03T21:36:30.542Z,2.30
2022-09-03T21:42:12.511Z,2.15
2022-09-03T21:47:59.188Z,2.80
2022-09-03T21:53:53.154Z,2.35
2022-09-03T21:59:56.431Z,1.88
2022-09-03T22:05:52.114Z,2.25
2022-09-03T22:11:42.506Z,2.88
2022-09-03T22:17:22.619Z,2.20
2022-09-03T22:23:06.116Z,2.08
2022-09-03T22:39:50.460Z,1.83
2022-09-03T22:45:45.444Z,2.35
2022-09-03T22:51:21.500Z,2.40
2022-09-03T22:56:53.202Z,2.03
2022-09-03T23:02:27.700Z,2.28
2022-09-03T23:08:22.529Z,1.92
2022-09-03T23:14:06.487Z,2.10
2022-09-03T23:25:24.482Z,2.38
2022-09-03T23:31:15.905Z,2.20
2022-09-03T23:37:32.083Z,2.30
2022-09-03T23:43:14.667Z,2.22
2022-09-03T23:49:12.845Z,2.05
2022-09-03T23:55:14.042Z,2.83
